KTPATNCM

Guest
Details From KTPA - Tampa Intl
To TNCM - St Maarten - Princess Juliana Intl
Flight Number -
Tags Generated
Created
Modified
Stats Distance 1,226 nm / 2,270 km
Max Altitude 0 ft / 0 m
Waypoints 5
Social Downloads 5
Likes 0
Share VATSIM

Download

Looking for another format? Having issues loading an existing format? Contact us
Advertisement - Login to hide

Notes

Generated

Route

KTPA LAUTH BURGO PJM31 TNCM

ID Type Via Altitude Latitude Longitude Leg Dist Tot Dist Heading (true) Name
O KTPA APT - 0 ft / 0 m 27.97083˚ -82.53608˚ - 0 nm - -
LAUTH FIX - 0 ft / 0 m 26.12666˚ -78.34300˚ 250 nm 250 nm 115° / 117° -
BURGO FIX - 0 ft / 0 m 24.41667˚ -74.56553˚ 229 nm 479 nm 116° / 117° -
PJM31 FIX - 0 ft / 0 m 18.10698˚ -63.21744˚ 739 nm 1218 nm 119° / 123° -
O TNCM APT - 0 ft / 0 m 18.03937˚ -63.11961˚ 6 nm 1225 nm 126° / 126° -

Altitude Profile

Advertisement - Login to hide

Weather


0- 5 10 15 20 25 30 35+ Temperature / ° C

Clouds and Precipitation
Forecast for 2017-12-14 18:00 UTC. Updated 2 hours ago

Ground ~20,000 ft ~40,000 ft Winds

KTPA

Details ICAO KTPA (TPA)
Name TAMPA INTL
Region United States
Timezone America/New_York (UTC-5.0)
Stats Elevation 26 ft / 8 m (AMSL)
Location 27.974892° -82.531898°
Runways 3
Magnetic Variation 5.557° W

METAR

KTPA 141853Z 23007KT 10SM BKN060 BKN250 23/13 A3001 RMK AO2 SLP160 T02280128

Decode

TAF

KTPA 141731Z 1418/1524 19010KT P6SM FEW035 SCT070 BKN150 FM141900 22010G15KT P6SM SCT035 BKN070 FM150100 19006KT P6SM SCT030 BKN080 FM152000 24007KT P6SM SCT020 BKN150

Decode

Departure Runways

ID Width Length Bearing (true) Bearing (mag) Surface Threshold Offset Overrun Length
01L 150 ft / 46 m 11,042 ft / 3,366 m 1.72° 7.28° Concrete 0 ft / 0 m 0 ft / 0 m
01R 150 ft / 46 m 8,330 ft / 2,539 m 1.72° 7.28° Asphalt 0 ft / 0 m 0 ft / 0 m
09 150 ft / 46 m 6,987 ft / 2,130 m 91.74° 97.30° Asphalt 0 ft / 0 m 0 ft / 0 m
19L 150 ft / 46 m 8,330 ft / 2,539 m 181.73° 187.29° Asphalt 0 ft / 0 m 0 ft / 0 m
19R 150 ft / 46 m 11,042 ft / 3,366 m 181.72° 187.28° Concrete 0 ft / 0 m 0 ft / 0 m
27 150 ft / 46 m 6,987 ft / 2,130 m 271.75° 277.31° Asphalt 0 ft / 0 m 0 ft / 0 m

TNCM

Details ICAO TNCM (SXM)
Name St Maarten - Princess Juliana Intl
Region Caribbean Netherlands, Aruba, Curaçao, Sint Maarten
Timezone Unknown (UTC+0.0)
Stats Elevation 12 ft / 4 m (AMSL)
Location 18.040889° -63.108974°
Runways 1
Magnetic Variation 14.325° W

METAR

TNCM 141900Z 09007KT 050V140 9999 SCT020 29/20 Q1016 A3001 NOSIG

Decode

TAF

TAF TNCM 141738Z 1418/1518 11008KT P6SM SCT022 FM142200 08012KT P6SM FEW022 FM151200 06017KT P6SM VCSH FEW020 SCT040

Decode

Destination Runways

ID Width Length Bearing (true) Bearing (mag) Surface Threshold Offset Overrun Length
10 148 ft / 45 m 7,464 ft / 2,275 m 81.43° 95.76° Asphalt 0 ft / 0 m 151 ft / 46 m
28 148 ft / 45 m 7,464 ft / 2,275 m 261.44° 275.77° Asphalt 397 ft / 121 m 0 ft / 0 m

Popular Alternatives